createdAt,value
2023-09-18T00:02:12.661Z,1.50
2023-09-18T00:04:47.084Z,1.45
2023-09-18T00:07:21.260Z,1.20
2023-09-18T00:09:57.225Z,1.42
2023-09-18T00:12:31.507Z,1.33
2023-09-18T00:15:09.713Z,1.63
2023-09-18T00:17:44.201Z,1.58
2023-09-18T00:20:20.742Z,1.48
2023-09-18T00:22:55.569Z,1.27
2023-09-18T00:25:31.936Z,1.55
2023-09-18T00:28:07.042Z,1.70
2023-09-18T00:30:50.027Z,1.58
2023-09-18T00:33:24.756Z,1.27
2023-09-18T00:35:59.333Z,1.20
2023-09-18T00:38:33.749Z,1.50
2023-09-18T00:41:09.325Z,1.45
2023-09-18T00:43:43.540Z,1.40
2023-09-18T00:46:17.814Z,1.20
2023-09-18T00:48:52.700Z,1.77
2023-09-18T00:51:27.447Z,1.27
2023-09-18T00:54:07.306Z,1.75
2023-09-18T00:56:42.920Z,1.80
2023-09-18T00:59:17.470Z,1.52
2023-09-18T01:01:52.611Z,1.33
2023-09-18T01:04:30.246Z,1.75
2023-09-18T01:07:06.676Z,1.63
2023-09-18T01:09:41.144Z,1.50
2023-09-18T01:12:24.898Z,1.50
2023-09-18T01:15:05.745Z,1.58
2023-09-18T01:17:41.543Z,1.30
2023-09-18T01:20:16.132Z,1.42
2023-09-18T01:22:51.882Z,1.17
2023-09-18T01:25:26.176Z,1.42
2023-09-18T01:28:01.205Z,1.42
2023-09-18T01:30:35.900Z,1.70
2023-09-18T01:33:11.559Z,1.73
2023-09-18T01:35:47.276Z,1.50
2023-09-18T01:38:24.651Z,1.20
2023-09-18T01:40:59.660Z,1.30
2023-09-18T01:43:34.334Z,1.60
2023-09-18T01:46:08.713Z,1.92
2023-09-18T01:48:48.955Z,1.38
2023-09-18T01:51:23.145Z,1.60
2023-09-18T01:53:58.982Z,1.45
2023-09-18T01:56:33.484Z,1.38
2023-09-18T01:59:07.849Z,1.73
2023-09-18T02:01:43.167Z,1.10
2023-09-18T02:04:32.025Z,1.80
2023-09-18T02:07:12.806Z,1.58
2023-09-18T02:09:48.763Z,1.10
2023-09-18T02:12:23.216Z,1.67
2023-09-18T02:14:58.486Z,1.27
2023-09-18T02:17:32.834Z,1.95
2023-09-18T02:20:13.079Z,1.25
2023-09-18T02:22:48.151Z,1.35
2023-09-18T02:25:23.977Z,1.38
2023-09-18T02:27:58.767Z,1.27
2023-09-18T02:30:33.014Z,1.60
2023-09-18T02:33:07.887Z,1.55
2023-09-18T02:35:44.505Z,1.15
2023-09-18T02:38:18.845Z,1.38
2023-09-18T02:40:55.795Z,1.20
2023-09-18T02:43:30.015Z,1.60
2023-09-18T02:46:04.594Z,1.02
2023-09-18T02:48:42.050Z,1.20
2023-09-18T02:51:16.291Z,1.20
2023-09-18T02:53:50.662Z,1.40
2023-09-18T02:56:26.533Z,1.38
2023-09-18T02:59:02.961Z,1.17
2023-09-18T03:01:37.444Z,1.60
2023-09-18T03:04:11.854Z,1.10
2023-09-18T03:06:46.177Z,1.60
2023-09-18T03:09:20.421Z,1.58
2023-09-18T03:11:55.962Z,1.70
2023-09-18T03:14:30.373Z,1.30
2023-09-18T03:17:05.226Z,1.20
2023-09-18T03:19:39.886Z,1.30
2023-09-18T03:22:14.060Z,1.17
2023-09-18T03:24:48.382Z,1.30
2023-09-18T03:27:29.756Z,1.30
2023-09-18T03:30:06.528Z,1.45
2023-09-18T03:32:41.285Z,1.33
2023-09-18T03:35:19.253Z,1.40
2023-09-18T03:37:55.602Z,1.40
2023-09-18T03:40:30.155Z,1.48
2023-09-18T03:43:06.169Z,1.50
2023-09-18T03:45:43.590Z,1.55
2023-09-18T03:48:18.027Z,1.30
2023-09-18T03:50:52.336Z,1.52
2023-09-18T03:53:26.493Z,1.42
2023-09-18T03:56:02.056Z,1.80
2023-09-18T03:58:37.872Z,1.35
2023-09-18T04:01:12.312Z,1.35
2023-09-18T04:03:48.050Z,1.38
2023-09-18T04:06:25.296Z,1.35
2023-09-18T04:08:59.701Z,1.33
2023-09-18T04:11:34.197Z,1.10
2023-09-18T04:14:10.116Z,1.30
2023-09-18T04:16:45.480Z,1.10
2023-09-18T04:19:19.860Z,1.38
2023-09-18T04:21:55.301Z,1.45
2023-09-18T04:24:31.742Z,1.38
2023-09-18T04:27:07.943Z,1.40
2023-09-18T04:29:43.708Z,1.60
2023-09-18T04:32:18.976Z,1.60
2023-09-18T04:34:53.330Z,1.65
2023-09-18T04:37:27.676Z,1.10
2023-09-18T04:40:02.487Z,1.30
2023-09-18T04:42:37.593Z,1.27
2023-09-18T04:45:13.483Z,1.17
2023-09-18T04:47:47.869Z,1.20
2023-09-18T04:50:22.149Z,1.42
2023-09-18T04:52:57.696Z,1.20
2023-09-18T04:55:32.247Z,1.30
2023-09-18T04:58:09.998Z,1.15
2023-09-18T05:00:47.585Z,0.93
2023-09-18T05:03:22.499Z,1.60
2023-09-18T05:05:57.019Z,1.38
2023-09-18T05:08:31.278Z,1.25
2023-09-18T05:11:09.143Z,1.48
2023-09-18T05:13:46.474Z,1.60
2023-09-18T05:16:23.172Z,1.00
2023-09-18T05:19:00.788Z,1.20
2023-09-18T05:21:34.977Z,1.00
2023-09-18T05:24:09.983Z,1.40
2023-09-18T05:26:44.696Z,1.40
2023-09-18T05:29:19.154Z,1.23
2023-09-18T05:31:56.063Z,1.40
2023-09-18T05:34:30.285Z,1.30
2023-09-18T05:37:06.251Z,1.73
2023-09-18T05:39:41.200Z,1.40
2023-09-18T05:42:15.457Z,1.30
2023-09-18T05:44:49.759Z,1.40
2023-09-18T05:47:25.722Z,1.23
2023-09-18T05:50:00.192Z,1.25
2023-09-18T05:52:34.740Z,1.48
2023-09-18T05:55:09.840Z,2.10
2023-09-18T05:57:44.385Z,1.67
2023-09-18T06:00:19.148Z,1.55
2023-09-18T06:02:54.684Z,1.90
2023-09-18T06:05:32.212Z,1.80
2023-09-18T06:08:10.994Z,1.45
2023-09-18T06:10:45.357Z,1.17
2023-09-18T06:13:19.748Z,1.83
2023-09-18T06:15:55.475Z,0.90
2023-09-18T06:18:32.555Z,1.08
2023-09-18T06:21:08.646Z,1.40
2023-09-18T06:23:42.816Z,1.17
2023-09-18T06:26:17.125Z,1.67
2023-09-18T06:28:53.706Z,1.50
2023-09-18T06:31:32.092Z,1.83
2023-09-18T06:34:09.290Z,1.25
2023-09-18T06:36:43.530Z,1.70
2023-09-18T06:39:17.761Z,1.27
2023-09-18T06:41:52.140Z,1.50
2023-09-18T06:44:26.752Z,1.65
2023-09-18T06:47:04.458Z,1.55
2023-09-18T06:49:39.923Z,1.63
2023-09-18T06:52:14.161Z,1.52
2023-09-18T06:54:48.933Z,1.38
2023-09-18T06:57:23.205Z,1.40
2023-09-18T06:59:57.481Z,1.55
2023-09-18T07:02:32.009Z,1.05
2023-09-18T07:05:09.687Z,1.25
2023-09-18T07:07:43.903Z,1.33
2023-09-18T07:10:18.372Z,1.35
2023-09-18T07:12:52.625Z,1.38
2023-09-18T07:15:27.241Z,0.88
2023-09-18T07:18:01.633Z,0.90
2023-09-18T07:20:37.414Z,1.60
2023-09-18T07:23:17.991Z,0.95
2023-09-18T07:25:52.506Z,0.93
2023-09-18T07:28:26.933Z,1.20
2023-09-18T07:31:09.896Z,1.00
2023-09-18T07:33:44.458Z,1.20
2023-09-18T07:36:21.145Z,1.27
2023-09-18T07:38:57.628Z,1.10
2023-09-18T07:41:34.876Z,0.90
2023-09-18T07:44:09.755Z,0.95
2023-09-18T07:46:44.012Z,1.33
2023-09-18T07:49:18.439Z,1.13
2023-09-18T07:51:54.261Z,1.13
2023-09-18T07:54:28.866Z,0.90
2023-09-18T07:57:03.229Z,0.63
2023-09-18T07:59:37.510Z,1.02
2023-09-18T08:02:11.833Z,0.93
2023-09-18T08:04:46.114Z,0.80
2023-09-18T08:07:21.691Z,0.50
2023-09-18T08:09:55.841Z,0.85
2023-09-18T08:12:30.032Z,0.68
2023-09-18T08:15:06.593Z,0.80
2023-09-18T08:17:42.022Z,1.20
2023-09-18T08:20:16.816Z,0.77
2023-09-18T08:22:52.922Z,0.60
2023-09-18T08:25:27.944Z,0.65
2023-09-18T08:28:03.126Z,0.52
2023-09-18T08:30:38.413Z,0.50
2023-09-18T08:33:12.984Z,0.60
2023-09-18T08:35:48.048Z,0.40
2023-09-18T08:38:23.875Z,1.08
2023-09-18T08:40:59.936Z,0.38
2023-09-18T08:43:34.794Z,0.40
2023-09-18T08:46:10.158Z,0.93
2023-09-18T08:48:45.869Z,0.40
2023-09-18T08:51:21.173Z,0.75
2023-09-18T08:53:57.349Z,0.55
2023-09-18T08:56:32.739Z,0.40
2023-09-18T08:59:07.792Z,0.50
2023-09-18T09:01:42.154Z,0.20
2023-09-18T09:04:17.027Z,0.45
2023-09-18T09:06:52.417Z,0.57
2023-09-18T09:09:29.393Z,0.30
2023-09-18T09:12:04.340Z,0.40
2023-09-18T09:14:39.946Z,0.40
2023-09-18T09:17:21.044Z,0.30
2023-09-18T09:20:13.053Z,0.40
2023-09-18T09:22:47.444Z,0.75
2023-09-18T09:25:28.196Z,0.55
2023-09-18T09:28:06.246Z,0.60
2023-09-18T09:30:40.672Z,0.25
2023-09-18T09:33:15.352Z,0.40
2023-09-18T09:35:50.103Z,0.30
2023-09-18T09:38:32.799Z,0.50
2023-09-18T09:41:11.437Z,0.30
2023-09-18T09:43:46.895Z,0.32
2023-09-18T09:46:22.814Z,0.30
2023-09-18T09:49:04.969Z,0.52
2023-09-18T09:51:39.518Z,0.30
2023-09-18T09:54:15.132Z,0.50
2023-09-18T09:56:52.856Z,0.32
2023-09-18T09:59:28.708Z,0.50
2023-09-18T10:02:04.613Z,0.30
2023-09-18T10:04:40.509Z,0.30
2023-09-18T10:07:14.669Z,0.30
2023-09-18T10:09:50.398Z,0.50
2023-09-18T10:12:27.909Z,0.40
2023-09-18T10:15:06.679Z,0.60
2023-09-18T10:17:47.010Z,0.40
2023-09-18T10:20:23.872Z,0.45
2023-09-18T10:23:03.142Z,0.20
2023-09-18T10:25:39.498Z,0.30
2023-09-18T10:28:16.477Z,0.30
2023-09-18T10:30:53.046Z,0.20
2023-09-18T10:33:28.414Z,0.30
2023-09-18T10:36:04.905Z,0.28
2023-09-18T10:38:40.326Z,0.30
2023-09-18T10:41:18.661Z,0.30
2023-09-18T10:43:58.342Z,0.52
2023-09-18T10:46:33.492Z,0.20
2023-09-18T10:49:08.828Z,0.30
2023-09-18T10:51:43.585Z,0.30
2023-09-18T10:54:23.390Z,0.20
2023-09-18T10:56:59.054Z,0.30
2023-09-18T10:59:34.878Z,0.20
2023-09-18T11:02:15.160Z,0.35
2023-09-18T11:07:26.667Z,0.20
2023-09-18T11:10:00.857Z,0.13
2023-09-18T11:12:46.232Z,0.20
2023-09-18T11:15:34.208Z,0.20
2023-09-18T11:18:10.200Z,0.20
2023-09-18T11:20:45.216Z,0.28
2023-09-18T11:23:20.444Z,0.22
2023-09-18T11:25:55.253Z,0.50
2023-09-18T11:28:34.825Z,0.20
2023-09-18T11:31:13.222Z,0.22
2023-09-18T11:33:48.056Z,0.40
2023-09-18T11:36:33.433Z,0.35
2023-09-18T11:39:08.025Z,0.28
2023-09-18T11:41:42.809Z,0.32
2023-09-18T11:44:41.970Z,0.50
2023-09-18T11:47:21.028Z,0.30
2023-09-18T11:49:59.475Z,0.38
2023-09-18T11:52:34.169Z,0.45
2023-09-18T11:55:09.988Z,0.40
2023-09-18T11:57:48.076Z,0.20
2023-09-18T12:00:26.184Z,0.30
2023-09-18T12:03:18.969Z,0.20
2023-09-18T12:06:01.853Z,0.30
2023-09-18T12:08:37.012Z,0.52
2023-09-18T12:11:18.733Z,0.43
2023-09-18T12:13:55.320Z,0.40
2023-09-18T12:16:32.833Z,0.40
2023-09-18T12:19:09.974Z,0.45
2023-09-18T12:21:44.786Z,0.40
2023-09-18T12:24:24.316Z,0.32
2023-09-18T12:27:01.362Z,0.30
2023-09-18T12:29:35.950Z,0.43
2023-09-18T12:32:14.694Z,0.55
2023-09-18T12:34:50.225Z,0.50
2023-09-18T12:37:25.195Z,0.60
2023-09-18T12:39:59.482Z,0.50
2023-09-18T12:42:35.170Z,0.30
2023-09-18T12:45:10.982Z,0.40
2023-09-18T12:47:45.694Z,0.50
2023-09-18T12:50:21.359Z,0.32
2023-09-18T12:52:55.569Z,0.30
2023-09-18T12:55:30.093Z,0.30
2023-09-18T12:58:09.081Z,0.40
2023-09-18T13:00:50.668Z,0.63
2023-09-18T13:03:25.234Z,0.38
2023-09-18T13:06:13.666Z,0.30
2023-09-18T13:11:57.736Z,0.50
2023-09-18T13:14:32.285Z,0.57
2023-09-18T13:17:06.614Z,0.30
2023-09-18T13:19:41.864Z,0.50
2023-09-18T13:22:27.279Z,0.50
2023-09-18T13:25:01.517Z,0.50
2023-09-18T13:27:35.600Z,0.30
2023-09-18T13:30:11.919Z,0.40
2023-09-18T13:32:47.376Z,0.32
2023-09-18T13:35:21.808Z,0.50
2023-09-18T13:37:58.965Z,0.30
2023-09-18T13:40:34.288Z,0.38
2023-09-18T13:43:10.957Z,0.35
2023-09-18T13:45:45.562Z,0.52
2023-09-18T13:48:21.774Z,0.60
2023-09-18T13:50:56.795Z,0.50
2023-09-18T13:53:32.424Z,0.50
2023-09-18T13:56:06.733Z,0.82
2023-09-18T13:58:42.462Z,0.30
2023-09-18T14:01:17.695Z,0.50
2023-09-18T14:03:53.020Z,0.70
2023-09-18T14:06:28.003Z,0.40
2023-09-18T14:09:06.665Z,0.40
2023-09-18T14:11:41.014Z,0.43
2023-09-18T14:14:16.113Z,0.30
2023-09-18T14:16:51.416Z,0.43
2023-09-18T14:19:26.811Z,0.30
2023-09-18T14:22:04.888Z,0.50
2023-09-18T14:24:40.499Z,0.57
2023-09-18T14:27:16.631Z,0.60
2023-09-18T14:29:51.080Z,0.57
2023-09-18T14:32:25.674Z,0.50
2023-09-18T14:35:02.735Z,0.40
2023-09-18T14:37:37.388Z,0.43
2023-09-18T14:40:15.025Z,0.50
2023-09-18T14:42:49.240Z,0.57
2023-09-18T14:45:23.453Z,0.57
2023-09-18T14:47:57.759Z,0.50
2023-09-18T14:50:32.362Z,0.30
2023-09-18T14:53:08.478Z,0.50
2023-09-18T14:55:44.871Z,0.60
2023-09-18T14:58:19.420Z,0.60
2023-09-18T15:00:54.298Z,0.50
2023-09-18T15:03:28.716Z,0.60
2023-09-18T15:06:03.085Z,0.50
2023-09-18T15:08:37.591Z,0.57
2023-09-18T15:11:18.392Z,0.50
2023-09-18T15:13:56.965Z,0.50
2023-09-18T15:16:31.887Z,0.43
2023-09-18T15:19:07.755Z,0.52
2023-09-18T15:21:42.513Z,0.60
2023-09-18T15:24:22.947Z,0.47
2023-09-18T15:26:59.023Z,0.40
2023-09-18T15:29:35.665Z,0.50
2023-09-18T15:32:10.264Z,0.75
2023-09-18T15:34:44.771Z,0.30
2023-09-18T15:37:20.274Z,0.40
2023-09-18T15:39:54.645Z,0.35
2023-09-18T15:42:30.194Z,0.40
2023-09-18T15:45:05.576Z,0.40
2023-09-18T15:47:40.435Z,0.40
2023-09-18T15:50:18.179Z,0.40
2023-09-18T15:52:53.022Z,0.50
2023-09-18T15:55:30.795Z,0.52
2023-09-18T15:58:08.735Z,0.47
2023-09-18T16:00:44.442Z,0.70
2023-09-18T16:03:20.964Z,0.38
2023-09-18T16:06:00.165Z,0.40
2023-09-18T16:08:38.750Z,0.32
2023-09-18T16:11:19.291Z,0.30
2023-09-18T16:13:57.407Z,0.40
2023-09-18T16:16:35.275Z,0.40
2023-09-18T16:19:10.416Z,0.63
2023-09-18T16:21:45.321Z,0.30
2023-09-18T16:24:20.722Z,0.68
2023-09-18T16:26:58.738Z,0.52
2023-09-18T16:29:35.332Z,0.30
2023-09-18T16:32:10.952Z,0.52
2023-09-18T16:34:45.572Z,0.50
2023-09-18T16:37:21.152Z,0.40
2023-09-18T16:39:55.633Z,0.70
2023-09-18T16:42:30.142Z,0.30
2023-09-18T16:45:08.734Z,0.55
2023-09-18T16:47:43.231Z,0.40
2023-09-18T16:50:20.830Z,0.50
2023-09-18T16:52:55.076Z,0.40
2023-09-18T16:55:29.453Z,0.57
2023-09-18T16:58:04.945Z,0.50
2023-09-18T17:00:41.370Z,0.47
2023-09-18T17:03:16.497Z,0.43
2023-09-18T17:05:51.834Z,0.40
2023-09-18T17:08:27.473Z,0.40
2023-09-18T17:11:01.704Z,0.38
2023-09-18T17:13:36.278Z,0.73
2023-09-18T17:16:13.273Z,0.40
2023-09-18T17:18:48.331Z,0.52
2023-09-18T17:21:22.631Z,0.30
2023-09-18T17:23:56.897Z,0.30
2023-09-18T17:26:31.409Z,1.15
2023-09-18T17:29:06.320Z,0.50
2023-09-18T17:31:42.599Z,0.40
2023-09-18T17:34:20.891Z,0.40
2023-09-18T17:36:56.762Z,0.60
2023-09-18T17:39:30.980Z,0.45
2023-09-18T17:42:05.921Z,0.55
2023-09-18T17:44:40.416Z,0.30
2023-09-18T17:47:22.420Z,0.30
2023-09-18T17:49:57.500Z,0.65
2023-09-18T17:52:32.325Z,0.40
2023-09-18T17:55:09.201Z,0.65
2023-09-18T17:57:43.753Z,0.68
2023-09-18T18:00:19.356Z,0.60
2023-09-18T18:02:57.354Z,0.38
2023-09-18T18:05:32.065Z,0.38
2023-09-18T18:08:07.816Z,0.63
2023-09-18T18:10:45.516Z,0.63
2023-09-18T18:13:22.815Z,0.50
2023-09-18T18:15:57.119Z,0.70
2023-09-18T18:18:33.050Z,0.40
2023-09-18T18:21:07.566Z,0.45
2023-09-18T18:23:42.258Z,0.40
2023-09-18T18:26:27.754Z,0.60
2023-09-18T18:29:04.811Z,0.43
2023-09-18T18:31:40.459Z,0.47
2023-09-18T18:34:16.227Z,0.57
2023-09-18T18:36:50.679Z,0.60
2023-09-18T18:39:25.986Z,0.60
2023-09-18T18:42:00.231Z,0.50
2023-09-18T18:44:35.744Z,0.35
2023-09-18T18:47:10.169Z,0.40
2023-09-18T18:49:46.261Z,0.35
2023-09-18T18:52:20.961Z,0.63
2023-09-18T18:54:56.105Z,0.50
2023-09-18T18:57:30.678Z,0.40
2023-09-18T19:00:11.202Z,0.60
2023-09-18T19:02:48.188Z,0.47
2023-09-18T19:05:25.489Z,0.47
2023-09-18T19:08:00.239Z,0.40
2023-09-18T19:10:34.941Z,0.50
2023-09-18T19:13:13.736Z,0.40
2023-09-18T19:15:48.620Z,0.50
2023-09-18T19:18:26.429Z,0.50
2023-09-18T19:21:07.844Z,0.63
2023-09-18T19:23:44.346Z,0.50
2023-09-18T19:26:20.471Z,0.60
2023-09-18T19:28:55.365Z,0.63
2023-09-18T19:31:30.288Z,0.50
2023-09-18T19:34:06.084Z,0.50
2023-09-18T19:36:44.563Z,0.38
2023-09-18T19:39:27.842Z,0.60
2023-09-18T19:42:04.239Z,0.50
2023-09-18T19:47:15.989Z,0.40
2023-09-18T19:49:50.745Z,0.52
2023-09-18T19:52:35.099Z,0.55
2023-09-18T19:55:11.187Z,0.60
2023-09-18T19:57:45.667Z,0.38
2023-09-18T20:00:20.862Z,0.60
2023-09-18T20:02:57.549Z,0.50
2023-09-18T20:05:32.126Z,0.60
2023-09-18T20:08:08.435Z,0.60
2023-09-18T20:10:44.642Z,0.45
2023-09-18T20:13:19.924Z,0.70
2023-09-18T20:15:54.530Z,0.40
2023-09-18T20:18:32.443Z,0.63
2023-09-18T20:21:09.979Z,0.50
2023-09-18T20:23:45.872Z,0.52
2023-09-18T20:26:24.540Z,0.60
2023-09-18T20:28:59.748Z,0.50
2023-09-18T20:31:34.113Z,0.40
2023-09-18T20:34:09.898Z,0.55
2023-09-18T20:36:44.573Z,0.40
2023-09-18T20:39:20.484Z,0.60
2023-09-18T20:41:56.493Z,0.60
2023-09-18T20:44:31.543Z,0.50
2023-09-18T20:47:06.948Z,0.50
2023-09-18T20:49:43.681Z,0.50
2023-09-18T20:52:18.950Z,0.30
2023-09-18T20:54:56.535Z,0.30
2023-09-18T20:57:32.982Z,0.50
2023-09-18T21:00:11.326Z,0.40
2023-09-18T21:02:47.494Z,0.35
2023-09-18T21:05:21.995Z,0.40
2023-09-18T21:07:56.764Z,0.30
2023-09-18T21:10:33.652Z,0.45
2023-09-18T21:13:08.325Z,0.50
2023-09-18T21:15:42.533Z,0.75
2023-09-18T21:18:16.709Z,0.40
2023-09-18T21:20:55.265Z,0.30
2023-09-18T21:23:29.830Z,0.30
2023-09-18T21:26:05.670Z,0.40
2023-09-18T21:28:41.560Z,0.20
2023-09-18T21:31:18.516Z,0.50
2023-09-18T21:33:57.339Z,0.20
2023-09-18T21:36:32.041Z,0.35
2023-09-18T21:39:06.539Z,0.20
2023-09-18T21:41:42.884Z,0.32
2023-09-18T21:44:17.108Z,0.30
2023-09-18T21:46:51.481Z,0.30
2023-09-18T21:49:26.750Z,0.30
2023-09-18T21:52:01.107Z,0.40
2023-09-18T21:54:35.372Z,0.20
2023-09-18T21:57:10.960Z,0.28
2023-09-18T21:59:45.186Z,0.30
2023-09-18T22:02:19.998Z,0.30
2023-09-18T22:04:55.522Z,0.40
2023-09-18T22:07:29.998Z,0.30
2023-09-18T22:10:05.144Z,0.20
2023-09-18T22:12:42.569Z,0.40
2023-09-18T22:15:17.811Z,0.20
2023-09-18T22:17:52.198Z,0.40
2023-09-18T22:20:27.629Z,0.38
2023-09-18T22:23:04.950Z,0.32
2023-09-18T22:25:41.804Z,0.30
2023-09-18T22:28:19.482Z,0.38
2023-09-18T22:30:53.944Z,0.30
2023-09-18T22:33:32.621Z,0.50
2023-09-18T22:36:20.812Z,0.50
2023-09-18T22:39:15.915Z,0.22
2023-09-18T22:41:53.833Z,0.40
2023-09-18T22:45:25.264Z,0.20
2023-09-18T22:48:56.592Z,0.20
2023-09-18T22:52:28.261Z,0.20
2023-09-18T22:55:04.020Z,0.20
2023-09-18T22:57:41.140Z,0.40
2023-09-18T23:00:19.193Z,0.30
2023-09-18T23:02:53.742Z,0.40
2023-09-18T23:05:31.450Z,0.40
2023-09-18T23:08:09.915Z,0.40
2023-09-18T23:10:45.958Z,0.20
2023-09-18T23:13:21.032Z,0.40
2023-09-18T23:15:55.370Z,0.30
2023-09-18T23:18:33.639Z,0.25
2023-09-18T23:21:08.458Z,0.30
2023-09-18T23:23:43.231Z,0.43
2023-09-18T23:26:20.762Z,0.30
2023-09-18T23:28:56.213Z,0.45
2023-09-18T23:31:32.464Z,0.35
2023-09-18T23:34:07.809Z,0.20
2023-09-18T23:36:42.186Z,0.40
2023-09-18T23:39:20.533Z,0.35
2023-09-18T23:41:57.795Z,0.20
2023-09-18T23:44:38.216Z,0.30
2023-09-18T23:47:13.916Z,0.20
2023-09-18T23:49:49.046Z,0.20
2023-09-18T23:52:26.039Z,0.13
2023-09-18T23:55:01.336Z,0.20
2023-09-18T23:57:36.891Z,0.20
